createdAt,value
2023-03-17T00:00:04.218Z,0.81
2023-03-17T00:02:59.777Z,-0.08
2023-03-17T00:05:45.841Z,0.53
2023-03-17T00:08:35.969Z,0.70
2023-03-17T00:11:21.705Z,0.54
2023-03-17T00:14:07.040Z,0.48
2023-03-17T00:16:53.276Z,0.35
2023-03-17T00:19:38.667Z,0.62
2023-03-17T00:22:24.202Z,0.63
2023-03-17T00:25:25.604Z,0.63
2023-03-17T00:28:25.508Z,-0.62
2023-03-17T00:31:23.560Z,0.67
2023-03-17T00:34:16.789Z,0.60
2023-03-17T00:37:02.294Z,0.48
2023-03-17T00:39:47.714Z,0.59
2023-03-17T00:42:33.661Z,-0.12
2023-03-17T00:45:21.331Z,0.22
2023-03-17T00:48:16.047Z,0.22
2023-03-17T00:51:01.946Z,-1.06
2023-03-17T00:53:48.137Z,-0.05
2023-03-17T00:56:33.424Z,0.07
2023-03-17T00:59:24.352Z,-0.06
2023-03-17T01:02:13.931Z,0.00
2023-03-17T01:05:06.325Z,-1.44
2023-03-17T01:07:57.449Z,-0.20
2023-03-17T01:10:42.849Z,-0.35
2023-03-17T01:13:29.402Z,-1.00
2023-03-17T01:16:15.766Z,-0.44
2023-03-17T01:19:01.544Z,-0.15
2023-03-17T01:21:48.101Z,-1.38
2023-03-17T01:24:33.702Z,-1.25
2023-03-17T01:27:19.495Z,0.16
2023-03-17T01:30:07.034Z,0.16
2023-03-17T01:32:53.313Z,-0.96
2023-03-17T01:35:39.356Z,-0.22
2023-03-17T01:38:24.852Z,-1.66
2023-03-17T01:41:10.506Z,-1.11
2023-03-17T01:43:56.013Z,-1.46
2023-03-17T01:46:41.461Z,-0.16
2023-03-17T01:49:35.700Z,-0.14
2023-03-17T01:52:23.213Z,-1.39
2023-03-17T01:55:17.418Z,-0.15
2023-03-17T01:58:03.338Z,-0.75
2023-03-17T02:00:50.271Z,-1.52
2023-03-17T02:03:35.772Z,-0.38
2023-03-17T02:06:22.176Z,-1.64
2023-03-17T02:09:07.999Z,-0.25
2023-03-17T02:11:55.643Z,-0.13
2023-03-17T02:14:41.674Z,-0.15
2023-03-17T02:17:28.573Z,-0.30
2023-03-17T02:20:17.237Z,-0.14
2023-03-17T02:23:04.343Z,-0.13
2023-03-17T02:25:52.640Z,-0.09
2023-03-17T02:28:39.584Z,-0.14
2023-03-17T02:31:27.191Z,-1.57
2023-03-17T02:34:13.054Z,-0.56
2023-03-17T02:36:59.158Z,-0.27
2023-03-17T02:39:44.741Z,-0.36
2023-03-17T02:42:30.649Z,-0.81
2023-03-17T02:45:18.039Z,-1.67
2023-03-17T02:48:05.432Z,-1.65
2023-03-17T02:50:50.867Z,-0.65
2023-03-17T02:53:36.686Z,-0.66
2023-03-17T02:56:22.502Z,-1.88
2023-03-17T02:59:08.592Z,-0.52
2023-03-17T03:01:56.204Z,-1.62
2023-03-17T03:04:43.130Z,-0.49
2023-03-17T03:07:29.172Z,-0.48
2023-03-17T03:10:14.652Z,-0.50
2023-03-17T03:13:00.013Z,-1.95
2023-03-17T03:15:45.468Z,-0.59
2023-03-17T03:18:30.994Z,-1.93
2023-03-17T03:21:16.408Z,-0.55
2023-03-17T03:24:02.255Z,-0.69
2023-03-17T03:26:48.337Z,-0.69
2023-03-17T03:29:33.721Z,-1.74
2023-03-17T03:32:19.099Z,-1.15
2023-03-17T03:35:04.796Z,-1.89
2023-03-17T03:37:50.640Z,-1.62
2023-03-17T03:40:36.972Z,-0.51
2023-03-17T03:43:24.026Z,-1.60
2023-03-17T03:46:09.782Z,-0.61
2023-03-17T03:48:55.434Z,-1.84
2023-03-17T03:51:41.665Z,-0.63
2023-03-17T03:54:27.417Z,-0.52
2023-03-17T03:57:13.501Z,-0.47
2023-03-17T03:59:59.098Z,-1.72
2023-03-17T04:02:47.277Z,-0.51
2023-03-17T04:05:33.254Z,-0.47
2023-03-17T04:08:18.834Z,-0.48
2023-03-17T04:11:04.354Z,-0.48
2023-03-17T04:13:49.709Z,-0.62
2023-03-17T04:16:35.274Z,-0.56
2023-03-17T04:19:21.636Z,-0.56
2023-03-17T04:22:09.120Z,-0.71
2023-03-17T04:24:55.163Z,-0.64
2023-03-17T04:27:44.663Z,-0.60
2023-03-17T04:30:30.289Z,-0.78
2023-03-17T04:33:16.894Z,-1.85
2023-03-17T04:36:04.077Z,-0.88
2023-03-17T04:38:49.711Z,-1.03
2023-03-17T04:41:35.333Z,-0.91
2023-03-17T04:44:20.669Z,-1.74
2023-03-17T04:47:06.383Z,-2.31
2023-03-17T04:49:51.747Z,-0.98
2023-03-17T04:52:37.854Z,-2.21
2023-03-17T04:55:23.494Z,-1.00
2023-03-17T04:58:10.388Z,-0.97
2023-03-17T05:00:59.424Z,-0.82
2023-03-17T05:03:45.558Z,-0.59
2023-03-17T05:06:31.478Z,-0.57
2023-03-17T05:09:16.983Z,-0.81
2023-03-17T05:12:02.727Z,0.01
2023-03-17T05:14:48.142Z,0.08
2023-03-17T05:17:33.861Z,0.21
2023-03-17T05:20:19.965Z,0.53
2023-03-17T05:23:05.572Z,-0.42
2023-03-17T05:25:51.098Z,0.67
2023-03-17T05:28:36.720Z,0.97
2023-03-17T05:31:22.944Z,1.23
2023-03-17T05:34:08.697Z,1.40
2023-03-17T05:36:54.418Z,1.40
2023-03-17T05:39:40.433Z,1.56
2023-03-17T05:42:26.345Z,1.69
2023-03-17T05:45:12.419Z,0.74
2023-03-17T05:47:57.998Z,2.19
2023-03-17T05:50:43.578Z,2.11
2023-03-17T05:53:31.256Z,2.38
2023-03-17T05:56:16.838Z,2.61
2023-03-17T05:59:02.374Z,2.77
2023-03-17T06:01:47.878Z,2.60
2023-03-17T06:04:33.632Z,2.00
2023-03-17T06:07:20.295Z,3.35
2023-03-17T06:10:06.914Z,3.57
2023-03-17T06:12:52.887Z,3.70
2023-03-17T06:15:38.400Z,3.97
2023-03-17T06:18:23.956Z,2.90
2023-03-17T06:21:09.982Z,4.24
2023-03-17T06:23:55.793Z,4.53
2023-03-17T06:26:41.326Z,4.71
2023-03-17T06:29:28.994Z,4.78
2023-03-17T06:32:20.684Z,5.01
2023-03-17T06:35:07.384Z,5.17
2023-03-17T06:37:52.820Z,5.25
2023-03-17T06:40:38.424Z,5.43
2023-03-17T06:43:25.020Z,5.45
2023-03-17T06:46:10.699Z,5.41
2023-03-17T06:48:56.567Z,5.60
2023-03-17T06:51:41.913Z,5.13
2023-03-17T06:54:27.666Z,5.46
2023-03-17T06:57:13.115Z,4.61
2023-03-17T06:59:58.787Z,5.70
2023-03-17T07:02:44.488Z,5.73
2023-03-17T07:05:30.172Z,5.33
2023-03-17T07:08:16.124Z,5.88
2023-03-17T07:11:04.238Z,5.60
2023-03-17T07:13:51.015Z,5.95
2023-03-17T07:16:37.664Z,5.94
2023-03-17T07:19:23.441Z,5.04
2023-03-17T07:22:12.592Z,6.08
2023-03-17T07:24:58.073Z,5.91
2023-03-17T07:27:43.523Z,6.18
2023-03-17T07:30:28.839Z,5.03
2023-03-17T07:33:14.986Z,4.88
2023-03-17T07:36:00.417Z,6.24
2023-03-17T07:38:46.708Z,5.79
2023-03-17T07:41:32.398Z,6.30
2023-03-17T07:44:18.008Z,6.28
2023-03-17T07:47:03.478Z,6.34
2023-03-17T07:53:14.825Z,5.28
2023-03-17T07:56:09.679Z,6.45
2023-03-17T07:58:57.250Z,5.58
2023-03-17T08:01:43.004Z,6.65
2023-03-17T08:04:29.501Z,5.71
2023-03-17T08:07:16.511Z,6.85
2023-03-17T08:10:03.232Z,6.15
2023-03-17T08:12:57.685Z,7.01
2023-03-17T08:15:52.024Z,7.05
2023-03-17T08:19:01.479Z,7.18
2023-03-17T08:22:05.944Z,7.20
2023-03-17T08:24:51.445Z,6.72
2023-03-17T08:27:37.565Z,7.09
2023-03-17T08:30:23.349Z,7.17
2023-03-17T08:33:11.915Z,7.18
2023-03-17T08:35:57.807Z,7.43
2023-03-17T08:38:45.018Z,7.48
2023-03-17T08:41:31.713Z,7.40
2023-03-17T08:44:17.202Z,7.57
2023-03-17T08:47:03.047Z,6.74
2023-03-17T08:49:48.515Z,6.47
2023-03-17T08:52:34.964Z,7.54
2023-03-17T08:55:21.541Z,6.48
2023-03-17T08:58:07.279Z,7.22
2023-03-17T09:00:53.874Z,7.41
2023-03-17T09:03:41.242Z,6.47
2023-03-17T09:06:27.790Z,7.19
2023-03-17T09:09:12.935Z,6.36
2023-03-17T09:11:58.730Z,6.40
2023-03-17T09:14:45.250Z,6.91
2023-03-17T09:17:31.261Z,6.76
2023-03-17T09:20:16.980Z,6.20
2023-03-17T09:23:08.024Z,6.62
2023-03-17T09:25:53.697Z,6.69
2023-03-17T09:28:39.620Z,6.40
2023-03-17T09:31:25.244Z,6.34
2023-03-17T09:34:11.047Z,6.44
2023-03-17T09:36:56.982Z,6.57
2023-03-17T09:39:42.672Z,6.60
2023-03-17T09:43:03.696Z,6.60
2023-03-17T09:45:49.405Z,6.65
2023-03-17T09:49:18.388Z,6.67
2023-03-17T09:52:04.543Z,6.60
2023-03-17T09:54:50.441Z,6.78
2023-03-17T09:57:38.176Z,6.32
2023-03-17T10:00:26.823Z,6.94
2023-03-17T10:03:13.425Z,7.08
2023-03-17T10:06:33.569Z,6.21
2023-03-17T10:09:35.455Z,7.33
2023-03-17T10:12:29.772Z,7.17
2023-03-17T10:15:50.972Z,7.27
2023-03-17T10:18:46.887Z,7.44
2023-03-17T10:21:35.263Z,7.49
2023-03-17T10:24:23.247Z,7.53
2023-03-17T10:27:13.783Z,7.55
2023-03-17T10:29:59.411Z,6.63
2023-03-17T10:32:46.627Z,7.62
2023-03-17T10:35:36.226Z,7.59
2023-03-17T10:38:22.966Z,7.50
2023-03-17T10:41:13.651Z,7.11
2023-03-17T10:43:59.548Z,7.37
2023-03-17T10:46:54.481Z,7.32
2023-03-17T10:49:40.141Z,7.28
2023-03-17T10:52:28.675Z,7.41
2023-03-17T10:55:18.093Z,7.33
2023-03-17T10:58:07.722Z,7.66
2023-03-17T11:01:08.551Z,7.76
2023-03-17T11:03:54.686Z,7.83
2023-03-17T11:06:44.250Z,7.78
2023-03-17T11:09:35.123Z,7.55
2023-03-17T11:12:40.103Z,7.72
2023-03-17T11:15:34.025Z,6.73
2023-03-17T11:18:23.697Z,7.79
2023-03-17T11:21:21.725Z,7.73
2023-03-17T11:24:19.575Z,7.76
2023-03-17T11:27:43.503Z,7.63
2023-03-17T11:30:33.163Z,7.18
2023-03-17T11:33:49.991Z,7.49
2023-03-17T11:36:38.408Z,7.46
2023-03-17T11:39:27.396Z,7.29
2023-03-17T11:42:18.605Z,7.49
2023-03-17T11:45:30.993Z,7.24
2023-03-17T11:48:35.018Z,7.43
2023-03-17T11:51:54.876Z,7.51
2023-03-17T11:54:50.757Z,7.57
2023-03-17T11:57:53.600Z,7.55
2023-03-17T12:00:45.582Z,7.45
2023-03-17T12:03:38.849Z,7.39
2023-03-17T12:06:30.593Z,7.44
2023-03-17T12:09:33.148Z,6.48
2023-03-17T12:12:28.364Z,7.28
2023-03-17T12:15:29.520Z,7.37
2023-03-17T12:18:23.702Z,7.50
2023-03-17T12:21:20.647Z,7.51
2023-03-17T12:24:17.338Z,7.51
2023-03-17T12:27:14.072Z,7.35
2023-03-17T12:30:08.110Z,7.49
2023-03-17T12:33:12.201Z,7.33
2023-03-17T12:36:01.299Z,6.33
2023-03-17T12:39:01.828Z,7.29
2023-03-17T12:41:53.618Z,7.51
2023-03-17T12:44:45.686Z,7.53
2023-03-17T12:47:44.262Z,7.41
2023-03-17T12:50:29.852Z,7.71
2023-03-17T12:53:28.470Z,7.73
2023-03-17T12:56:27.598Z,7.52
2023-03-17T12:59:26.087Z,7.56
2023-03-17T13:02:32.409Z,7.61
2023-03-17T13:05:28.760Z,7.37
2023-03-17T13:08:23.426Z,7.67
2023-03-17T13:11:36.773Z,7.79
2023-03-17T13:14:44.612Z,7.82
2023-03-17T13:17:33.151Z,6.43
2023-03-17T13:20:20.770Z,7.80
2023-03-17T13:23:15.086Z,7.85
2023-03-17T13:26:00.806Z,7.82
2023-03-17T13:28:49.243Z,7.79
2023-03-17T13:31:37.792Z,7.33
2023-03-17T13:34:23.588Z,6.42
2023-03-17T13:37:43.075Z,7.64
2023-03-17T13:40:52.614Z,7.48
2023-03-17T13:44:23.035Z,7.61
2023-03-17T13:47:17.388Z,7.60
2023-03-17T13:50:25.413Z,7.62
2023-03-17T13:53:15.783Z,7.25
2023-03-17T13:56:12.052Z,7.59
2023-03-17T13:59:05.292Z,7.80
2023-03-17T14:02:03.338Z,7.07
2023-03-17T14:04:56.520Z,7.77
2023-03-17T14:07:53.475Z,7.45
2023-03-17T14:10:44.537Z,7.71
2023-03-17T14:13:42.096Z,7.68
2023-03-17T14:16:35.063Z,6.59
2023-03-17T14:19:27.029Z,7.34
2023-03-17T14:22:24.677Z,7.42
2023-03-17T14:25:19.240Z,7.39
2023-03-17T14:28:11.139Z,7.56
2023-03-17T14:31:08.115Z,7.55
2023-03-17T14:34:01.291Z,6.42
2023-03-17T14:36:47.038Z,7.58
2023-03-17T14:39:32.755Z,7.36
2023-03-17T14:42:25.848Z,7.51
2023-03-17T14:45:24.227Z,7.52
2023-03-17T14:48:14.475Z,7.56
2023-03-17T14:51:05.773Z,7.29
2023-03-17T14:53:52.766Z,7.31
2023-03-17T14:56:42.144Z,7.49
2023-03-17T14:59:35.228Z,7.49
2023-03-17T15:02:33.224Z,7.45
2023-03-17T15:05:41.942Z,7.54
2023-03-17T15:08:35.778Z,7.57
2023-03-17T15:11:24.977Z,7.54
2023-03-17T15:14:28.492Z,7.36
2023-03-17T15:17:30.726Z,7.52
2023-03-17T15:20:19.885Z,7.50
2023-03-17T15:23:14.733Z,7.44
2023-03-17T15:26:03.204Z,6.27
2023-03-17T15:28:48.720Z,7.19
2023-03-17T15:31:34.189Z,7.31
2023-03-17T15:34:19.898Z,7.41
2023-03-17T15:37:14.464Z,7.04
2023-03-17T15:40:01.678Z,7.46
2023-03-17T15:42:47.398Z,6.20
2023-03-17T15:45:32.968Z,7.16
2023-03-17T15:48:31.446Z,7.04
2023-03-17T15:51:17.372Z,6.95
2023-03-17T15:54:03.283Z,5.97
2023-03-17T15:56:50.935Z,7.29
2023-03-17T15:59:36.724Z,7.25
2023-03-17T16:02:22.229Z,7.36
2023-03-17T16:05:17.231Z,7.17
2023-03-17T16:08:03.440Z,7.24
2023-03-17T16:10:49.485Z,7.18
2023-03-17T16:13:34.866Z,7.39
2023-03-17T16:16:46.208Z,7.40
2023-03-17T16:19:32.563Z,7.37
2023-03-17T16:22:36.209Z,7.40
2023-03-17T16:25:28.407Z,7.37
2023-03-17T16:28:19.331Z,7.32
2023-03-17T16:31:24.277Z,7.31
2023-03-17T16:34:21.101Z,7.29
2023-03-17T16:37:14.632Z,7.24
2023-03-17T16:40:00.542Z,7.17
2023-03-17T16:42:47.455Z,7.13
2023-03-17T16:45:34.904Z,6.87
2023-03-17T16:48:20.419Z,7.04
2023-03-17T16:51:07.515Z,5.80
2023-03-17T16:53:53.112Z,6.83
2023-03-17T16:56:43.607Z,5.54
2023-03-17T16:59:31.477Z,5.59
2023-03-17T17:02:16.955Z,6.65
2023-03-17T17:05:03.123Z,5.40
2023-03-17T17:07:54.008Z,6.51
2023-03-17T17:10:41.423Z,6.28
2023-03-17T17:13:27.207Z,5.20
2023-03-17T17:16:34.811Z,6.15
2023-03-17T17:19:21.810Z,6.27
2023-03-17T17:22:07.459Z,4.98
2023-03-17T17:24:53.130Z,5.32
2023-03-17T17:27:41.788Z,6.06
2023-03-17T17:30:30.218Z,5.73
2023-03-17T17:33:17.970Z,5.80
2023-03-17T17:36:12.884Z,5.97
2023-03-17T17:38:59.573Z,5.89
2023-03-17T17:41:45.293Z,5.73
2023-03-17T17:44:32.675Z,5.89
2023-03-17T17:47:19.181Z,5.83
2023-03-17T17:50:06.961Z,5.45
2023-03-17T17:52:52.636Z,5.70
2023-03-17T17:55:44.084Z,5.66
2023-03-17T17:58:30.155Z,5.39
2023-03-17T18:01:19.793Z,4.25
2023-03-17T18:04:05.548Z,4.20
2023-03-17T18:06:51.386Z,5.50
2023-03-17T18:09:37.746Z,4.24
2023-03-17T18:12:23.242Z,5.26
2023-03-17T18:15:09.388Z,5.18
2023-03-17T18:17:55.390Z,5.23
2023-03-17T18:20:41.583Z,5.25
2023-03-17T18:23:28.074Z,5.16
2023-03-17T18:26:15.970Z,5.21
2023-03-17T18:29:01.698Z,5.18
2023-03-17T18:31:53.467Z,5.04
2023-03-17T18:34:47.918Z,5.25
2023-03-17T18:37:33.292Z,4.53
2023-03-17T18:40:19.466Z,5.18
2023-03-17T18:43:04.921Z,4.16
2023-03-17T18:45:50.389Z,5.24
2023-03-17T18:48:36.397Z,5.21
2023-03-17T18:51:22.249Z,5.18
2023-03-17T18:54:08.641Z,5.26
2023-03-17T18:56:55.765Z,4.36
2023-03-17T18:59:41.660Z,5.05
2023-03-17T19:02:27.433Z,4.98
2023-03-17T19:05:15.392Z,3.69
2023-03-17T19:08:01.003Z,4.85
2023-03-17T19:10:46.729Z,4.81
2023-03-17T19:13:32.297Z,4.78
2023-03-17T19:16:18.796Z,4.49
2023-03-17T19:19:04.388Z,4.50
2023-03-17T19:21:49.997Z,3.20
2023-03-17T19:24:37.564Z,3.32
2023-03-17T19:27:23.276Z,3.99
2023-03-17T19:30:10.248Z,3.92
2023-03-17T19:32:56.180Z,3.84
2023-03-17T19:35:44.404Z,4.03
2023-03-17T19:38:31.028Z,3.93
2023-03-17T19:41:16.481Z,3.93
2023-03-17T19:44:03.398Z,2.75
2023-03-17T19:46:49.244Z,3.79
2023-03-17T19:49:36.735Z,3.80
2023-03-17T19:52:22.085Z,3.73
2023-03-17T19:55:08.426Z,2.34
2023-03-17T19:57:53.927Z,3.49
2023-03-17T20:00:41.498Z,3.58
2023-03-17T20:03:27.239Z,3.50
2023-03-17T20:06:13.426Z,2.33
2023-03-17T20:08:58.512Z,3.29
2023-03-17T20:11:43.994Z,3.13
2023-03-17T20:14:29.505Z,2.12
2023-03-17T20:17:15.487Z,2.94
2023-03-17T20:20:01.382Z,2.90
2023-03-17T20:22:47.498Z,3.00
2023-03-17T20:25:33.302Z,2.69
2023-03-17T20:28:21.731Z,2.85
2023-03-17T20:31:08.074Z,2.80
2023-03-17T20:33:53.790Z,2.70
2023-03-17T20:36:42.359Z,1.79
2023-03-17T20:39:28.750Z,2.62
2023-03-17T20:42:14.827Z,2.13
2023-03-17T20:45:00.743Z,2.35
2023-03-17T20:47:47.339Z,2.34
2023-03-17T20:50:34.536Z,2.34
2023-03-17T20:53:20.129Z,2.29
2023-03-17T20:56:06.370Z,2.09
2023-03-17T20:58:53.341Z,1.89
2023-03-17T21:01:40.318Z,1.12
2023-03-17T21:04:26.049Z,2.20
2023-03-17T21:07:11.483Z,2.19
2023-03-17T21:09:57.032Z,2.12
2023-03-17T21:12:43.606Z,2.07
2023-03-17T21:15:29.549Z,2.36
2023-03-17T21:18:15.015Z,1.11
2023-03-17T21:21:00.789Z,2.48
2023-03-17T21:23:46.388Z,2.10
2023-03-17T21:26:32.514Z,2.47
2023-03-17T21:29:18.327Z,2.51
2023-03-17T21:32:05.353Z,1.18
2023-03-17T21:34:50.833Z,2.22
2023-03-17T21:37:36.293Z,2.25
2023-03-17T21:40:22.747Z,0.90
2023-03-17T21:43:07.969Z,2.05
2023-03-17T21:45:53.535Z,1.56
2023-03-17T21:48:38.959Z,0.98
2023-03-17T21:51:25.663Z,2.28
2023-03-17T21:54:11.635Z,2.14
2023-03-17T21:56:57.335Z,2.30
2023-03-17T21:59:42.773Z,2.16
2023-03-17T22:02:28.408Z,2.23
2023-03-17T22:05:13.832Z,2.44
2023-03-17T22:07:59.533Z,1.35
2023-03-17T22:10:45.073Z,2.30
2023-03-17T22:13:30.465Z,1.86
2023-03-17T22:16:17.226Z,1.95
2023-03-17T22:19:03.583Z,1.89
2023-03-17T22:21:50.379Z,1.69
2023-03-17T22:24:37.821Z,1.39
2023-03-17T22:27:23.598Z,1.74
2023-03-17T22:30:10.942Z,0.60
2023-03-17T22:32:56.536Z,1.89
2023-03-17T22:35:42.236Z,2.01
2023-03-17T22:38:27.740Z,2.04
2023-03-17T22:41:16.615Z,2.05
2023-03-17T22:44:02.535Z,1.14
2023-03-17T22:46:47.720Z,0.67
2023-03-17T22:49:33.194Z,1.99
2023-03-17T22:52:19.016Z,1.84
2023-03-17T22:55:05.133Z,0.55
2023-03-17T22:57:50.790Z,1.63
2023-03-17T23:00:36.492Z,1.48
2023-03-17T23:03:24.008Z,1.50
2023-03-17T23:06:10.066Z,1.49
2023-03-17T23:08:56.227Z,1.50
2023-03-17T23:11:42.778Z,1.06
2023-03-17T23:14:29.203Z,1.18
2023-03-17T23:17:14.945Z,1.18
2023-03-17T23:20:00.629Z,0.02
2023-03-17T23:22:46.139Z,0.19
2023-03-17T23:25:31.762Z,-0.16
2023-03-17T23:28:17.325Z,1.11
2023-03-17T23:31:03.842Z,1.01
2023-03-17T23:33:51.333Z,-0.14
2023-03-17T23:36:40.366Z,0.72
2023-03-17T23:39:26.399Z,-0.51
2023-03-17T23:42:12.387Z,-0.34
2023-03-17T23:44:58.471Z,0.85
2023-03-17T23:47:45.994Z,0.57
2023-03-17T23:50:32.166Z,-0.01
2023-03-17T23:53:17.929Z,0.89
2023-03-17T23:56:03.908Z,0.93
2023-03-17T23:58:50.005Z,1.07
